sensor_id;sensor_type;location;lat;lon;timestamp;pressure;altitude;pressure_sealevel;temperature;humidity
550;BME280;20066;48.764;9.176;2022-07-11T00:00:00;98864.16;;;19.08;50.55
550;BME280;20066;48.764;9.176;2022-07-11T00:02:28;98865.66;;;18.93;50.93
550;BME280;20066;48.764;9.176;2022-07-11T00:04:55;98870.84;;;19.23;50.24
550;BME280;20066;48.764;9.176;2022-07-11T00:07:23;98870.91;;;18.64;52.05
550;BME280;20066;48.764;9.176;2022-07-11T00:09:51;98865.06;;;18.85;51.56
550;BME280;20066;48.764;9.176;2022-07-11T00:12:19;98866.47;;;19.09;50.63
550;BME280;20066;48.764;9.176;2022-07-11T00:14:49;98863.53;;;18.80;51.78
550;BME280;20066;48.764;9.176;2022-07-11T00:17:17;98852.28;;;18.98;51.31
550;BME280;20066;48.764;9.176;2022-07-11T00:19:45;98856.50;;;19.19;50.96
550;BME280;20066;48.764;9.176;2022-07-11T00:22:13;98859.56;;;18.65;51.62
550;BME280;20066;48.764;9.176;2022-07-11T00:24:41;98850.00;;;19.13;51.20
550;BME280;20066;48.764;9.176;2022-07-11T00:27:09;98843.78;;;18.57;52.24
550;BME280;20066;48.764;9.176;2022-07-11T00:29:36;98844.72;;;19.06;52.14
550;BME280;20066;48.764;9.176;2022-07-11T00:32:06;98844.72;;;19.06;51.32
550;BME280;20066;48.764;9.176;2022-07-11T00:34:34;98843.63;;;19.36;51.02
550;BME280;20066;48.764;9.176;2022-07-11T00:37:02;98845.75;;;19.28;50.26
550;BME280;20066;48.764;9.176;2022-07-11T00:39:30;98845.19;;;19.37;50.33
550;BME280;20066;48.764;9.176;2022-07-11T00:41:58;98849.03;;;19.39;50.25
550;BME280;20066;48.764;9.176;2022-07-11T00:44:26;98848.41;;;18.60;52.29
550;BME280;20066;48.764;9.176;2022-07-11T00:46:53;98845.50;;;19.06;51.45
550;BME280;20066;48.764;9.176;2022-07-11T00:49:23;98849.16;;;19.00;52.31
550;BME280;20066;48.764;9.176;2022-07-11T00:51:50;98833.78;;;18.90;52.08
550;BME280;20066;48.764;9.176;2022-07-11T00:54:20;98843.97;;;19.21;51.01
550;BME280;20066;48.764;9.176;2022-07-11T00:56:49;98845.03;;;18.72;52.38
550;BME280;20066;48.764;9.176;2022-07-11T00:59:18;98834.63;;;18.86;53.35
550;BME280;20066;48.764;9.176;2022-07-11T01:01:45;98832.94;;;18.73;52.59
550;BME280;20066;48.764;9.176;2022-07-11T01:04:13;98832.50;;;18.94;52.24
550;BME280;20066;48.764;9.176;2022-07-11T01:06:43;98823.16;;;19.11;51.69
550;BME280;20066;48.764;9.176;2022-07-11T01:09:10;98833.50;;;19.36;52.13
550;BME280;20066;48.764;9.176;2022-07-11T01:11:38;98830.09;;;19.32;51.21
550;BME280;20066;48.764;9.176;2022-07-11T01:14:06;98824.47;;;19.23;51.92
550;BME280;20066;48.764;9.176;2022-07-11T01:16:33;98826.47;;;19.19;51.50
550;BME280;20066;48.764;9.176;2022-07-11T01:19:01;98825.91;;;19.44;51.64
550;BME280;20066;48.764;9.176;2022-07-11T01:21:30;98820.78;;;19.30;50.73
550;BME280;20066;48.764;9.176;2022-07-11T01:24:01;98824.56;;;18.64;53.06
550;BME280;20066;48.764;9.176;2022-07-11T01:26:29;98830.41;;;18.82;52.82
550;BME280;20066;48.764;9.176;2022-07-11T01:29:05;98825.81;;;19.31;52.49
550;BME280;20066;48.764;9.176;2022-07-11T01:31:33;98830.03;;;18.44;55.25
550;BME280;20066;48.764;9.176;2022-07-11T01:34:01;98829.97;;;18.47;54.14
550;BME280;20066;48.764;9.176;2022-07-11T01:36:29;98821.06;;;18.63;55.04
550;BME280;20066;48.764;9.176;2022-07-11T01:38:57;98819.66;;;18.75;54.04
550;BME280;20066;48.764;9.176;2022-07-11T01:41:26;98818.31;;;18.83;53.29
550;BME280;20066;48.764;9.176;2022-07-11T01:43:54;98807.38;;;19.19;52.81
550;BME280;20066;48.764;9.176;2022-07-11T01:46:22;98809.63;;;19.08;52.84
550;BME280;20066;48.764;9.176;2022-07-11T01:48:49;98816.19;;;19.43;51.54
550;BME280;20066;48.764;9.176;2022-07-11T01:51:17;98813.38;;;19.46;51.31
550;BME280;20066;48.764;9.176;2022-07-11T01:53:45;98816.06;;;18.98;52.83
550;BME280;20066;48.764;9.176;2022-07-11T01:56:13;98821.13;;;19.32;52.71
550;BME280;20066;48.764;9.176;2022-07-11T01:58:47;98810.88;;;19.19;52.53
550;BME280;20066;48.764;9.176;2022-07-11T02:01:15;98816.41;;;18.83;52.54
550;BME280;20066;48.764;9.176;2022-07-11T02:03:43;98810.13;;;19.19;52.19
550;BME280;20066;48.764;9.176;2022-07-11T02:06:12;98808.25;;;19.32;51.85
550;BME280;20066;48.764;9.176;2022-07-11T02:08:40;98811.13;;;19.41;52.22
550;BME280;20066;48.764;9.176;2022-07-11T02:11:08;98816.88;;;19.31;51.88
550;BME280;20066;48.764;9.176;2022-07-11T02:13:35;98809.09;;;19.29;51.78
550;BME280;20066;48.764;9.176;2022-07-11T02:16:05;98803.88;;;19.02;52.56
550;BME280;20066;48.764;9.176;2022-07-11T02:18:33;98808.84;;;19.40;52.18
550;BME280;20066;48.764;9.176;2022-07-11T02:21:01;98811.00;;;19.16;52.45
550;BME280;20066;48.764;9.176;2022-07-11T02:23:29;98801.88;;;19.39;52.07
550;BME280;20066;48.764;9.176;2022-07-11T02:25:56;98804.78;;;19.32;51.96
550;BME280;20066;48.764;9.176;2022-07-11T02:28:24;98815.41;;;18.94;52.91
550;BME280;20066;48.764;9.176;2022-07-11T02:30:52;98814.66;;;19.09;53.14
550;BME280;20066;48.764;9.176;2022-07-11T02:33:21;98805.19;;;19.30;52.41
550;BME280;20066;48.764;9.176;2022-07-11T02:35:49;98807.34;;;18.51;54.68
550;BME280;20066;48.764;9.176;2022-07-11T02:38:17;98814.44;;;18.84;53.97
550;BME280;20066;48.764;9.176;2022-07-11T02:40:44;98801.25;;;18.63;54.40
550;BME280;20066;48.764;9.176;2022-07-11T02:43:13;98806.44;;;18.73;54.23
550;BME280;20066;48.764;9.176;2022-07-11T02:45:42;98810.22;;;18.79;54.60
550;BME280;20066;48.764;9.176;2022-07-11T02:48:10;98800.19;;;18.57;54.47
550;BME280;20066;48.764;9.176;2022-07-11T02:50:39;98803.34;;;18.55;54.81
550;BME280;20066;48.764;9.176;2022-07-11T02:53:07;98803.88;;;18.86;54.50
550;BME280;20066;48.764;9.176;2022-07-11T02:55:34;98805.00;;;18.69;54.26
550;BME280;20066;48.764;9.176;2022-07-11T02:58:02;98808.31;;;18.96;53.74
550;BME280;20066;48.764;9.176;2022-07-11T03:00:31;98802.75;;;18.64;54.77
550;BME280;20066;48.764;9.176;2022-07-11T03:02:59;98804.31;;;18.65;54.51
550;BME280;20066;48.764;9.176;2022-07-11T03:05:28;98808.66;;;18.98;54.09
550;BME280;20066;48.764;9.176;2022-07-11T03:07:57;98806.97;;;18.48;55.02
550;BME280;20066;48.764;9.176;2022-07-11T03:10:24;98812.50;;;18.45;55.41
550;BME280;20066;48.764;9.176;2022-07-11T03:12:52;98811.75;;;18.80;54.73
550;BME280;20066;48.764;9.176;2022-07-11T03:15:20;98810.19;;;18.99;54.66
550;BME280;20066;48.764;9.176;2022-07-11T03:17:48;98811.75;;;19.16;53.60
550;BME280;20066;48.764;9.176;2022-07-11T03:20:17;98809.00;;;19.49;52.93
550;BME280;20066;48.764;9.176;2022-07-11T03:22:45;98815.84;;;19.08;53.24
550;BME280;20066;48.764;9.176;2022-07-11T03:25:14;98812.22;;;18.59;54.76
550;BME280;20066;48.764;9.176;2022-07-11T03:27:42;98808.09;;;18.51;55.25
550;BME280;20066;48.764;9.176;2022-07-11T03:30:10;98805.06;;;18.65;55.78
550;BME280;20066;48.764;9.176;2022-07-11T03:32:38;98806.44;;;18.93;55.05
550;BME280;20066;48.764;9.176;2022-07-11T03:35:07;98810.25;;;18.60;55.39
550;BME280;20066;48.764;9.176;2022-07-11T03:37:52;98806.97;;;19.20;54.11
550;BME280;20066;48.764;9.176;2022-07-11T03:40:21;98813.03;;;19.28;53.88
550;BME280;20066;48.764;9.176;2022-07-11T03:42:49;98812.44;;;19.20;54.08
550;BME280;20066;48.764;9.176;2022-07-11T03:45:18;98811.75;;;19.33;53.62
550;BME280;20066;48.764;9.176;2022-07-11T03:47:45;98812.78;;;19.39;53.50
550;BME280;20066;48.764;9.176;2022-07-11T03:50:14;98816.75;;;19.18;54.32
550;BME280;20066;48.764;9.176;2022-07-11T03:52:43;98802.25;;;18.89;54.91
550;BME280;20066;48.764;9.176;2022-07-11T03:55:11;98812.84;;;19.19;54.33
550;BME280;20066;48.764;9.176;2022-07-11T03:57:40;98810.03;;;19.55;53.74
550;BME280;20066;48.764;9.176;2022-07-11T04:00:09;98815.16;;;19.37;54.23
550;BME280;20066;48.764;9.176;2022-07-11T04:02:37;98806.44;;;19.42;53.66
550;BME280;20066;48.764;9.176;2022-07-11T04:05:06;98804.84;;;19.44;53.75
550;BME280;20066;48.764;9.176;2022-07-11T04:07:34;98809.47;;;19.31;53.32
550;BME280;20066;48.764;9.176;2022-07-11T04:10:01;98803.47;;;19.52;53.62
550;BME280;20066;48.764;9.176;2022-07-11T04:12:29;98801.59;;;19.49;53.80
550;BME280;20066;48.764;9.176;2022-07-11T04:14:58;98802.34;;;19.17;53.94
550;BME280;20066;48.764;9.176;2022-07-11T04:17:26;98806.91;;;19.40;54.80
550;BME280;20066;48.764;9.176;2022-07-11T04:19:54;98806.72;;;19.31;53.96
550;BME280;20066;48.764;9.176;2022-07-11T04:22:22;98812.50;;;19.33;54.88
550;BME280;20066;48.764;9.176;2022-07-11T04:24:50;98815.16;;;19.69;53.85
550;BME280;20066;48.764;9.176;2022-07-11T04:27:18;98805.50;;;19.64;53.62
550;BME280;20066;48.764;9.176;2022-07-11T04:29:48;98805.84;;;19.50;53.66
550;BME280;20066;48.764;9.176;2022-07-11T04:32:17;98813.44;;;19.75;53.32
550;BME280;20066;48.764;9.176;2022-07-11T04:34:45;98816.94;;;20.05;52.39
550;BME280;20066;48.764;9.176;2022-07-11T04:37:13;98812.06;;;20.12;52.32
550;BME280;20066;48.764;9.176;2022-07-11T04:39:40;98809.88;;;19.46;54.20
550;BME280;20066;48.764;9.176;2022-07-11T04:42:11;98803.56;;;19.16;54.90
550;BME280;20066;48.764;9.176;2022-07-11T04:44:39;98813.09;;;19.41;55.09
550;BME280;20066;48.764;9.176;2022-07-11T04:47:07;98808.84;;;19.40;54.79
550;BME280;20066;48.764;9.176;2022-07-11T04:49:36;98813.00;;;19.60;54.28
550;BME280;20066;48.764;9.176;2022-07-11T04:52:05;98803.25;;;19.92;54.37
550;BME280;20066;48.764;9.176;2022-07-11T04:54:33;98811.25;;;19.99;54.02
550;BME280;20066;48.764;9.176;2022-07-11T04:57:00;98813.47;;;20.33;52.73
550;BME280;20066;48.764;9.176;2022-07-11T04:59:28;98809.06;;;20.35;52.06
550;BME280;20066;48.764;9.176;2022-07-11T05:01:56;98804.38;;;20.36;52.34
550;BME280;20066;48.764;9.176;2022-07-11T05:04:24;98812.78;;;20.29;52.29
550;BME280;20066;48.764;9.176;2022-07-11T05:06:53;98811.78;;;20.23;52.53
550;BME280;20066;48.764;9.176;2022-07-11T05:09:21;98815.38;;;20.20;52.65
550;BME280;20066;48.764;9.176;2022-07-11T05:11:48;98812.97;;;20.22;53.74
550;BME280;20066;48.764;9.176;2022-07-11T05:14:17;98809.63;;;20.30;52.92
550;BME280;20066;48.764;9.176;2022-07-11T05:16:45;98809.19;;;20.32;52.91
550;BME280;20066;48.764;9.176;2022-07-11T05:19:13;98797.66;;;18.66;59.03
550;BME280;20066;48.764;9.176;2022-07-11T05:21:40;98812.78;;;19.55;56.68
550;BME280;20066;48.764;9.176;2022-07-11T05:24:10;98814.22;;;19.11;57.16
550;BME280;20066;48.764;9.176;2022-07-11T05:26:37;98815.13;;;20.14;54.49
550;BME280;20066;48.764;9.176;2022-07-11T05:29:05;98816.91;;;19.92;55.10
550;BME280;20066;48.764;9.176;2022-07-11T05:31:33;98810.47;;;20.69;53.34
550;BME280;20066;48.764;9.176;2022-07-11T05:34:01;98820.41;;;20.21;54.14
550;BME280;20066;48.764;9.176;2022-07-11T05:36:28;98819.66;;;20.33;54.23
550;BME280;20066;48.764;9.176;2022-07-11T05:38:56;98818.00;;;20.65;52.74
550;BME280;20066;48.764;9.176;2022-07-11T05:41:25;98824.06;;;21.10;52.76
550;BME280;20066;48.764;9.176;2022-07-11T05:43:53;98819.13;;;20.67;53.15
550;BME280;20066;48.764;9.176;2022-07-11T05:46:21;98821.00;;;20.96;52.50
550;BME280;20066;48.764;9.176;2022-07-11T05:48:49;98827.44;;;20.89;52.54
550;BME280;20066;48.764;9.176;2022-07-11T05:51:22;98822.94;;;21.21;52.63
550;BME280;20066;48.764;9.176;2022-07-11T05:53:50;98832.50;;;21.16;51.66
550;BME280;20066;48.764;9.176;2022-07-11T05:56:17;98834.25;;;21.35;52.24
550;BME280;20066;48.764;9.176;2022-07-11T05:58:46;98830.94;;;20.64;52.53
550;BME280;20066;48.764;9.176;2022-07-11T06:01:14;98839.53;;;20.21;53.87
550;BME280;20066;48.764;9.176;2022-07-11T06:03:42;98839.16;;;20.90;53.09
550;BME280;20066;48.764;9.176;2022-07-11T06:06:11;98824.06;;;20.85;53.21
550;BME280;20066;48.764;9.176;2022-07-11T06:08:38;98832.53;;;20.20;54.34
550;BME280;20066;48.764;9.176;2022-07-11T06:11:09;98834.06;;;20.50;52.76
550;BME280;20066;48.764;9.176;2022-07-11T06:13:38;98829.66;;;20.40;53.33
550;BME280;20066;48.764;9.176;2022-07-11T06:16:08;98828.94;;;20.65;53.21
550;BME280;20066;48.764;9.176;2022-07-11T06:18:38;98824.25;;;20.65;52.92
550;BME280;20066;48.764;9.176;2022-07-11T06:21:06;98836.50;;;20.32;53.99
550;BME280;20066;48.764;9.176;2022-07-11T06:23:34;98835.84;;;20.28;55.19
550;BME280;20066;48.764;9.176;2022-07-11T06:26:02;98830.72;;;20.30;54.32
550;BME280;20066;48.764;9.176;2022-07-11T06:28:30;98832.09;;;20.51;53.80
550;BME280;20066;48.764;9.176;2022-07-11T06:30:58;98840.03;;;21.12;52.65
550;BME280;20066;48.764;9.176;2022-07-11T06:33:27;98834.47;;;21.41;50.80
550;BME280;20066;48.764;9.176;2022-07-11T06:35:55;98827.34;;;21.18;50.84
550;BME280;20066;48.764;9.176;2022-07-11T06:38:23;98837.81;;;21.70;49.90
550;BME280;20066;48.764;9.176;2022-07-11T06:40:51;98844.09;;;21.92;49.13
550;BME280;20066;48.764;9.176;2022-07-11T06:43:20;98838.50;;;21.49;50.44
550;BME280;20066;48.764;9.176;2022-07-11T06:45:48;98836.00;;;21.17;51.17
550;BME280;20066;48.764;9.176;2022-07-11T06:48:16;98830.94;;;20.77;51.98
550;BME280;20066;48.764;9.176;2022-07-11T06:50:45;98832.69;;;20.96;52.17
550;BME280;20066;48.764;9.176;2022-07-11T06:53:13;98839.66;;;21.73;50.37
550;BME280;20066;48.764;9.176;2022-07-11T06:55:41;98834.00;;;22.02;49.99
550;BME280;20066;48.764;9.176;2022-07-11T06:58:09;98840.38;;;21.01;51.09
550;BME280;20066;48.764;9.176;2022-07-11T07:00:50;98842.03;;;21.49;51.28
550;BME280;20066;48.764;9.176;2022-07-11T07:03:18;98835.91;;;21.33;50.54
550;BME280;20066;48.764;9.176;2022-07-11T07:08:16;98836.69;;;21.33;50.61
550;BME280;20066;48.764;9.176;2022-07-11T07:10:44;98842.38;;;21.86;49.26
550;BME280;20066;48.764;9.176;2022-07-11T07:13:11;98835.47;;;23.21;47.67
550;BME280;20066;48.764;9.176;2022-07-11T07:15:39;98834.75;;;23.39;45.75
550;BME280;20066;48.764;9.176;2022-07-11T07:18:07;98841.91;;;22.65;47.64
550;BME280;20066;48.764;9.176;2022-07-11T07:20:35;98834.19;;;20.47;52.62
550;BME280;20066;48.764;9.176;2022-07-11T07:23:02;98842.75;;;22.10;49.48
550;BME280;20066;48.764;9.176;2022-07-11T07:25:32;98836.41;;;20.35;52.98
550;BME280;20066;48.764;9.176;2022-07-11T07:28:00;98838.81;;;21.64;51.05
550;BME280;20066;48.764;9.176;2022-07-11T07:30:27;98835.69;;;21.40;50.65
550;BME280;20066;48.764;9.176;2022-07-11T07:32:55;98837.72;;;21.61;49.34
550;BME280;20066;48.764;9.176;2022-07-11T07:35:23;98828.03;;;22.91;46.68
550;BME280;20066;48.764;9.176;2022-07-11T07:37:51;98836.75;;;22.98;46.06
550;BME280;20066;48.764;9.176;2022-07-11T07:40:19;98832.91;;;23.36;45.90
550;BME280;20066;48.764;9.176;2022-07-11T07:42:49;98831.53;;;23.31;46.14
550;BME280;20066;48.764;9.176;2022-07-11T07:45:17;98832.63;;;23.34;45.45
550;BME280;20066;48.764;9.176;2022-07-11T07:47:45;98834.69;;;23.12;46.99
550;BME280;20066;48.764;9.176;2022-07-11T07:50:12;98839.91;;;23.95;45.86
550;BME280;20066;48.764;9.176;2022-07-11T07:52:40;98835.56;;;23.49;46.38
550;BME280;20066;48.764;9.176;2022-07-11T07:55:08;98831.50;;;22.82;47.17
550;BME280;20066;48.764;9.176;2022-07-11T07:57:36;98828.44;;;23.69;43.82
550;BME280;20066;48.764;9.176;2022-07-11T08:00:06;98827.28;;;22.68;45.65
550;BME280;20066;48.764;9.176;2022-07-11T08:02:52;98829.69;;;22.57;47.03
550;BME280;20066;48.764;9.176;2022-07-11T08:05:20;98822.44;;;23.43;44.19
550;BME280;20066;48.764;9.176;2022-07-11T08:07:48;98817.16;;;23.18;44.74
550;BME280;20066;48.764;9.176;2022-07-11T08:10:16;98821.81;;;22.99;45.65
550;BME280;20066;48.764;9.176;2022-07-11T08:12:43;98818.03;;;23.55;47.03
550;BME280;20066;48.764;9.176;2022-07-11T08:15:14;98819.34;;;23.32;46.96
550;BME280;20066;48.764;9.176;2022-07-11T08:17:41;98824.94;;;24.42;42.19
550;BME280;20066;48.764;9.176;2022-07-11T08:20:10;98824.63;;;25.33;43.41
550;BME280;20066;48.764;9.176;2022-07-11T08:22:38;98823.72;;;24.25;45.57
550;BME280;20066;48.764;9.176;2022-07-11T08:25:07;98815.72;;;24.63;44.04
550;BME280;20066;48.764;9.176;2022-07-11T08:27:35;98822.94;;;24.06;44.47
550;BME280;20066;48.764;9.176;2022-07-11T08:30:07;98822.97;;;24.15;44.70
550;BME280;20066;48.764;9.176;2022-07-11T08:32:39;98822.75;;;25.06;43.62
550;BME280;20066;48.764;9.176;2022-07-11T08:35:09;98816.69;;;25.83;39.54
550;BME280;20066;48.764;9.176;2022-07-11T08:37:37;98820.03;;;25.63;39.84
550;BME280;20066;48.764;9.176;2022-07-11T08:40:06;98807.81;;;24.29;39.26
550;BME280;20066;48.764;9.176;2022-07-11T08:42:40;98803.78;;;22.15;44.33
550;BME280;20066;48.764;9.176;2022-07-11T08:45:10;98799.34;;;25.44;40.33
550;BME280;20066;48.764;9.176;2022-07-11T08:47:40;98804.91;;;22.70;42.12
550;BME280;20066;48.764;9.176;2022-07-11T08:50:10;98799.22;;;22.34;43.86
550;BME280;20066;48.764;9.176;2022-07-11T08:52:39;98795.53;;;25.41;39.09
550;BME280;20066;48.764;9.176;2022-07-11T08:55:07;98794.59;;;24.78;38.79
550;BME280;20066;48.764;9.176;2022-07-11T08:57:35;98791.53;;;25.42;40.25
550;BME280;20066;48.764;9.176;2022-07-11T09:00:06;98785.09;;;24.70;37.90
550;BME280;20066;48.764;9.176;2022-07-11T09:02:35;98794.28;;;25.66;37.28
550;BME280;20066;48.764;9.176;2022-07-11T09:05:06;98791.00;;;24.96;42.65
550;BME280;20066;48.764;9.176;2022-07-11T09:07:34;98789.09;;;24.78;41.33
550;BME280;20066;48.764;9.176;2022-07-11T09:10:09;98789.44;;;25.04;40.83
550;BME280;20066;48.764;9.176;2022-07-11T09:12:36;98791.81;;;24.18;39.81
550;BME280;20066;48.764;9.176;2022-07-11T09:15:05;98797.09;;;25.95;38.26
550;BME280;20066;48.764;9.176;2022-07-11T09:17:33;98788.63;;;25.13;36.81
550;BME280;20066;48.764;9.176;2022-07-11T09:20:02;98793.53;;;25.65;38.73
550;BME280;20066;48.764;9.176;2022-07-11T09:22:33;98790.78;;;24.67;37.41
550;BME280;20066;48.764;9.176;2022-07-11T09:25:18;98784.47;;;24.84;37.39
550;BME280;20066;48.764;9.176;2022-07-11T09:27:51;98786.44;;;25.50;38.13
550;BME280;20066;48.764;9.176;2022-07-11T09:30:24;98791.00;;;25.53;38.48
550;BME280;20066;48.764;9.176;2022-07-11T09:32:54;98787.53;;;24.17;38.50
550;BME280;20066;48.764;9.176;2022-07-11T09:35:22;98789.72;;;23.18;41.63
550;BME280;20066;48.764;9.176;2022-07-11T09:37:52;98804.56;;;24.58;38.67
550;BME280;20066;48.764;9.176;2022-07-11T09:40:21;98801.19;;;24.53;40.65
550;BME280;20066;48.764;9.176;2022-07-11T09:42:51;98804.56;;;24.67;41.21
550;BME280;20066;48.764;9.176;2022-07-11T09:45:20;98802.94;;;24.93;37.88
550;BME280;20066;48.764;9.176;2022-07-11T09:47:49;98802.81;;;23.72;41.60
550;BME280;20066;48.764;9.176;2022-07-11T09:50:18;98791.41;;;23.25;43.94
550;BME280;20066;48.764;9.176;2022-07-11T09:53:04;98800.75;;;22.87;43.89
550;BME280;20066;48.764;9.176;2022-07-11T09:55:34;98800.19;;;23.60;42.33
550;BME280;20066;48.764;9.176;2022-07-11T09:58:20;98796.59;;;23.32;43.12
550;BME280;20066;48.764;9.176;2022-07-11T10:00:56;98795.31;;;23.82;42.54
550;BME280;20066;48.764;9.176;2022-07-11T10:03:25;98804.28;;;24.46;39.60
550;BME280;20066;48.764;9.176;2022-07-11T10:06:12;98800.66;;;24.31;40.45
550;BME280;20066;48.764;9.176;2022-07-11T10:08:42;98798.97;;;25.51;39.08
550;BME280;20066;48.764;9.176;2022-07-11T10:11:10;98789.13;;;25.02;38.34
550;BME280;20066;48.764;9.176;2022-07-11T10:13:38;98798.13;;;25.12;39.76
550;BME280;20066;48.764;9.176;2022-07-11T10:16:13;98797.00;;;24.85;38.71
550;BME280;20066;48.764;9.176;2022-07-11T10:18:46;98802.94;;;25.26;39.04
550;BME280;20066;48.764;9.176;2022-07-11T10:21:24;98801.66;;;23.33;41.30
550;BME280;20066;48.764;9.176;2022-07-11T10:24:06;98794.84;;;24.02;41.03
550;BME280;20066;48.764;9.176;2022-07-11T10:26:46;98812.41;;;23.95;39.33
550;BME280;20066;48.764;9.176;2022-07-11T10:29:20;98808.75;;;23.80;41.30
550;BME280;20066;48.764;9.176;2022-07-11T10:32:04;98814.09;;;23.84;40.10
550;BME280;20066;48.764;9.176;2022-07-11T10:34:42;98801.31;;;24.77;38.22
550;BME280;20066;48.764;9.176;2022-07-11T10:37:11;98792.44;;;24.73;38.91
550;BME280;20066;48.764;9.176;2022-07-11T10:39:57;98796.69;;;24.14;41.21
550;BME280;20066;48.764;9.176;2022-07-11T10:42:38;98795.63;;;24.90;38.56
550;BME280;20066;48.764;9.176;2022-07-11T10:45:07;98805.72;;;26.86;36.71
550;BME280;20066;48.764;9.176;2022-07-11T10:47:39;98796.91;;;26.81;34.42
550;BME280;20066;48.764;9.176;2022-07-11T10:50:31;98794.94;;;27.57;33.15
550;BME280;20066;48.764;9.176;2022-07-11T10:53:07;98803.25;;;27.98;32.55
550;BME280;20066;48.764;9.176;2022-07-11T10:55:39;98802.22;;;26.41;34.57
550;BME280;20066;48.764;9.176;2022-07-11T10:58:18;98801.91;;;26.98;34.19
550;BME280;20066;48.764;9.176;2022-07-11T11:00:48;98800.50;;;29.18;30.40
550;BME280;20066;48.764;9.176;2022-07-11T11:03:17;98806.16;;;27.69;34.98
550;BME280;20066;48.764;9.176;2022-07-11T11:05:46;98807.22;;;27.01;34.01
550;BME280;20066;48.764;9.176;2022-07-11T11:08:43;98800.38;;;25.70;36.07
550;BME280;20066;48.764;9.176;2022-07-11T11:11:35;98794.13;;;24.10;39.11
550;BME280;20066;48.764;9.176;2022-07-11T11:14:18;98791.19;;;25.16;37.54
550;BME280;20066;48.764;9.176;2022-07-11T11:16:46;98796.34;;;24.90;38.07
550;BME280;20066;48.764;9.176;2022-07-11T11:19:49;98792.53;;;25.92;36.12
550;BME280;20066;48.764;9.176;2022-07-11T11:22:18;98789.38;;;25.37;36.72
550;BME280;20066;48.764;9.176;2022-07-11T11:24:48;98789.97;;;25.17;36.86
550;BME280;20066;48.764;9.176;2022-07-11T11:27:38;98787.38;;;26.38;35.18
550;BME280;20066;48.764;9.176;2022-07-11T11:30:27;98786.38;;;27.35;34.06
550;BME280;20066;48.764;9.176;2022-07-11T11:32:55;98789.47;;;26.29;34.97
550;BME280;20066;48.764;9.176;2022-07-11T11:35:23;98783.28;;;29.51;30.53
550;BME280;20066;48.764;9.176;2022-07-11T11:37:57;98783.38;;;29.68;29.56
550;BME280;20066;48.764;9.176;2022-07-11T11:40:25;98786.84;;;30.39;30.35
550;BME280;20066;48.764;9.176;2022-07-11T11:42:53;98785.28;;;31.16;28.32
550;BME280;20066;48.764;9.176;2022-07-11T11:45:21;98783.63;;;29.16;30.34
550;BME280;20066;48.764;9.176;2022-07-11T11:47:50;98781.22;;;30.00;29.66
550;BME280;20066;48.764;9.176;2022-07-11T11:50:19;98783.69;;;29.86;31.02
550;BME280;20066;48.764;9.176;2022-07-11T11:52:46;98783.22;;;36.45;22.70
550;BME280;20066;48.764;9.176;2022-07-11T11:55:14;98779.66;;;37.14;19.86
550;BME280;20066;48.764;9.176;2022-07-11T11:57:43;98781.84;;;36.80;21.08
550;BME280;20066;48.764;9.176;2022-07-11T12:00:20;98778.28;;;31.78;26.05
550;BME280;20066;48.764;9.176;2022-07-11T12:03:13;98767.56;;;28.89;30.36
550;BME280;20066;48.764;9.176;2022-07-11T12:05:53;98771.13;;;28.58;31.37
550;BME280;20066;48.764;9.176;2022-07-11T12:08:27;98766.06;;;30.01;30.20
550;BME280;20066;48.764;9.176;2022-07-11T12:10:55;98769.81;;;29.81;29.21
550;BME280;20066;48.764;9.176;2022-07-11T12:13:24;98765.22;;;29.13;33.29
550;BME280;20066;48.764;9.176;2022-07-11T12:15:51;98768.88;;;31.01;30.44
550;BME280;20066;48.764;9.176;2022-07-11T12:18:39;98766.09;;;31.07;28.77
550;BME280;20066;48.764;9.176;2022-07-11T12:21:10;98767.97;;;32.08;27.14
550;BME280;20066;48.764;9.176;2022-07-11T12:23:39;98769.16;;;30.58;28.07
550;BME280;20066;48.764;9.176;2022-07-11T12:26:07;98762.91;;;27.45;33.56
550;BME280;20066;48.764;9.176;2022-07-11T12:28:35;98766.00;;;29.73;30.09
550;BME280;20066;48.764;9.176;2022-07-11T12:31:23;98759.50;;;31.04;27.95
550;BME280;20066;48.764;9.176;2022-07-11T12:33:52;98758.56;;;28.99;31.64
550;BME280;20066;48.764;9.176;2022-07-11T12:36:31;98758.22;;;27.77;33.12
550;BME280;20066;48.764;9.176;2022-07-11T12:38:59;98755.84;;;26.89;35.58
550;BME280;20066;48.764;9.176;2022-07-11T12:41:29;98754.31;;;28.10;32.84
550;BME280;20066;48.764;9.176;2022-07-11T12:43:57;98757.88;;;26.15;37.29
550;BME280;20066;48.764;9.176;2022-07-11T12:46:42;98750.66;;;27.32;33.68
550;BME280;20066;48.764;9.176;2022-07-11T12:49:15;98759.66;;;29.07;31.97
550;BME280;20066;48.764;9.176;2022-07-11T12:51:45;98753.53;;;32.45;26.96
550;BME280;20066;48.764;9.176;2022-07-11T12:54:14;98749.28;;;29.56;32.02
550;BME280;20066;48.764;9.176;2022-07-11T12:56:51;98748.00;;;28.35;33.49
550;BME280;20066;48.764;9.176;2022-07-11T12:59:22;98753.31;;;28.39;32.36
550;BME280;20066;48.764;9.176;2022-07-11T13:01:55;98746.00;;;25.70;37.86
550;BME280;20066;48.764;9.176;2022-07-11T13:04:33;98745.22;;;26.67;36.36
550;BME280;20066;48.764;9.176;2022-07-11T13:07:23;98749.25;;;26.87;36.30
550;BME280;20066;48.764;9.176;2022-07-11T13:10:09;98743.34;;;26.29;36.47
550;BME280;20066;48.764;9.176;2022-07-11T13:12:38;98742.97;;;26.22;36.94
550;BME280;20066;48.764;9.176;2022-07-11T13:15:07;98744.94;;;27.00;35.25
550;BME280;20066;48.764;9.176;2022-07-11T13:17:40;98749.31;;;25.12;38.74
550;BME280;20066;48.764;9.176;2022-07-11T13:20:12;98739.84;;;27.13;35.85
550;BME280;20066;48.764;9.176;2022-07-11T13:22:41;98742.75;;;26.40;35.68
550;BME280;20066;48.764;9.176;2022-07-11T13:25:09;98736.66;;;26.06;36.97
550;BME280;20066;48.764;9.176;2022-07-11T13:27:39;98748.00;;;25.70;38.04
550;BME280;20066;48.764;9.176;2022-07-11T13:30:08;98751.00;;;25.96;38.33
550;BME280;20066;48.764;9.176;2022-07-11T13:32:43;98746.94;;;26.35;38.35
550;BME280;20066;48.764;9.176;2022-07-11T13:35:13;98737.38;;;24.82;39.41
550;BME280;20066;48.764;9.176;2022-07-11T13:37:44;98743.22;;;25.56;38.62
550;BME280;20066;48.764;9.176;2022-07-11T13:40:14;98742.41;;;25.94;37.65